<?xml version="1.0" encoding="UTF-8" standalone="no" ?><gpx xmlns="http://www.topografix.com/GPX/1/1" xmlns:gpxx="http://www.garmin.com/xmlschemas/GpxExtensions/v3" xmlns:wptx1="http://www.garmin.com/xmlschemas/WaypointExtension/v1" xmlns:gpxtpx="http://www.garmin.com/xmlschemas/TrackPointExtension/v1" creator="GuideVTT.com" version="1.1" xmlns:xsi="http://www.w3.org/2001/XMLSchema-instance" xsi:schemaLocation="http://www.topografix.com/GPX/1/1 http://www.topografix.com/GPX/1/1/gpx.xsd http://www.garmin.com/xmlschemas/GpxExtensions/v3 http://www8.garmin.com/xmlschemas/GpxExtensionsv3.xsd http://www.garmin.com/xmlschemas/WaypointExtension/v1 http://www8.garmin.com/xmlschemas/WaypointExtensionv1.xsd http://www.garmin.com/xmlschemas/TrackPointExtension/v1 http://www.garmin.com/xmlschemas/TrackPointExtensionv1.xsd">
<metadata><link href="http://www.garmin.com"><text>Garmin International</text></link><time>2013-06-22T15:13:50Z</time></metadata>
<trk><name>2020-05-12_1209__20200512_1209.gpx</name><extensions><gpxx:TrackExtension><gpxx:DisplayColor>Cyan</gpxx:DisplayColor></gpxx:TrackExtension></extensions><trkseg>
<trkpt lat="48.8839320" lon="2.6305023"><ele>43.43</ele><time>2026-4-30T20:17:52Z</time></trkpt>
<trkpt lat="48.8839260" lon="2.6307859"><ele>39.52</ele><time>2026-4-30T20:17:55Z</time></trkpt>
<trkpt lat="48.8841041" lon="2.6306430"><ele>43.25</ele><time>2026-4-30T20:17:58Z</time></trkpt>
<trkpt lat="48.8842442" lon="2.6304642"><ele>44.37</ele><time>2026-4-30T20:18:1Z</time></trkpt>
<trkpt lat="48.8843840" lon="2.6302832"><ele>45.14</ele><time>2026-4-30T20:18:4Z</time></trkpt>
<trkpt lat="48.8845553" lon="2.6301134"><ele>46.04</ele><time>2026-4-30T20:18:7Z</time></trkpt>
<trkpt lat="48.8847281" lon="2.6300040"><ele>45.68</ele><time>2026-4-30T20:18:10Z</time></trkpt>
<trkpt lat="48.8849380" lon="2.6297734"><ele>44.38</ele><time>2026-4-30T20:18:13Z</time></trkpt>
<trkpt lat="48.8850977" lon="2.6295461"><ele>44.70</ele><time>2026-4-30T20:18:16Z</time></trkpt>
<trkpt lat="48.8852384" lon="2.6293589"><ele>45.97</ele><time>2026-4-30T20:18:19Z</time></trkpt>
<trkpt lat="48.8853885" lon="2.6291658"><ele>48.57</ele><time>2026-4-30T20:18:22Z</time></trkpt>
<trkpt lat="48.8855558" lon="2.6290055"><ele>49.20</ele><time>2026-4-30T20:18:25Z</time></trkpt>
<trkpt lat="48.8857938" lon="2.6289716"><ele>50.17</ele><time>2026-4-30T20:18:28Z</time></trkpt>
<trkpt lat="48.8859882" lon="2.6288270"><ele>49.37</ele><time>2026-4-30T20:18:31Z</time></trkpt>
<trkpt lat="48.8861280" lon="2.6286110"><ele>52.55</ele><time>2026-4-30T20:18:34Z</time></trkpt>
<trkpt lat="48.8862836" lon="2.6284229"><ele>53.96</ele><time>2026-4-30T20:18:37Z</time></trkpt>
<trkpt lat="48.8864475" lon="2.6282291"><ele>54.76</ele><time>2026-4-30T20:18:40Z</time></trkpt>
<trkpt lat="48.8865978" lon="2.6280052"><ele>55.39</ele><time>2026-4-30T20:18:43Z</time></trkpt>
<trkpt lat="48.8867765" lon="2.6279388"><ele>50.34</ele><time>2026-4-30T20:18:46Z</time></trkpt>
<trkpt lat="48.8869771" lon="2.6277652"><ele>48.43</ele><time>2026-4-30T20:18:49Z</time></trkpt>
<trkpt lat="48.8870578" lon="2.6274893"><ele>50.91</ele><time>2026-4-30T20:18:52Z</time></trkpt>
<trkpt lat="48.8872125" lon="2.6273078"><ele>51.15</ele><time>2026-4-30T20:18:55Z</time></trkpt>
<trkpt lat="48.8873959" lon="2.6270973"><ele>47.27</ele><time>2026-4-30T20:18:58Z</time></trkpt>
<trkpt lat="48.8874949" lon="2.6268521"><ele>47.01</ele><time>2026-4-30T20:19:1Z</time></trkpt>
<trkpt lat="48.8876785" lon="2.6268264"><ele>49.66</ele><time>2026-4-30T20:19:4Z</time></trkpt>
<trkpt lat="48.8878134" lon="2.6270749"><ele>47.86</ele><time>2026-4-30T20:19:7Z</time></trkpt>
<trkpt lat="48.8879554" lon="2.6272640"><ele>47.73</ele><time>2026-4-30T20:19:10Z</time></trkpt>
<trkpt lat="48.8881279" lon="2.6274512"><ele>49.62</ele><time>2026-4-30T20:19:13Z</time></trkpt>
<trkpt lat="48.8882175" lon="2.6277144"><ele>53.97</ele><time>2026-4-30T20:19:16Z</time></trkpt>
<trkpt lat="48.8883222" lon="2.6279382"><ele>54.15</ele><time>2026-4-30T20:19:19Z</time></trkpt>
<trkpt lat="48.8884651" lon="2.6281993"><ele>53.36</ele><time>2026-4-30T20:19:22Z</time></trkpt>
<trkpt lat="48.8885937" lon="2.6284235"><ele>52.67</ele><time>2026-4-30T20:19:25Z</time></trkpt>
<trkpt lat="48.8887296" lon="2.6286670"><ele>52.25</ele><time>2026-4-30T20:19:28Z</time></trkpt>
<trkpt lat="48.8888640" lon="2.6289098"><ele>51.99</ele><time>2026-4-30T20:19:31Z</time></trkpt>
<trkpt lat="48.8890029" lon="2.6291618"><ele>51.05</ele><time>2026-4-30T20:19:34Z</time></trkpt>
<trkpt lat="48.8891469" lon="2.6294294"><ele>50.37</ele><time>2026-4-30T20:19:37Z</time></trkpt>
<trkpt lat="48.8892966" lon="2.6297141"><ele>49.50</ele><time>2026-4-30T20:19:40Z</time></trkpt>
<trkpt lat="48.8894503" lon="2.6300006"><ele>48.87</ele><time>2026-4-30T20:19:43Z</time></trkpt>
<trkpt lat="48.8895843" lon="2.6302579"><ele>48.87</ele><time>2026-4-30T20:19:46Z</time></trkpt>
<trkpt lat="48.8897179" lon="2.6305583"><ele>39.97</ele><time>2026-4-30T20:19:49Z</time></trkpt>
<trkpt lat="48.8898347" lon="2.6308363"><ele>34.18</ele><time>2026-4-30T20:19:52Z</time></trkpt>
<trkpt lat="48.8899603" lon="2.6310913"><ele>30.96</ele><time>2026-4-30T20:19:55Z</time></trkpt>
<trkpt lat="48.8900898" lon="2.6313253"><ele>30.00</ele><time>2026-4-30T20:19:58Z</time></trkpt>
<trkpt lat="48.8902289" lon="2.6315591"><ele>31.02</ele><time>2026-4-30T20:20:1Z</time></trkpt>
<trkpt lat="48.8903281" lon="2.6317924"><ele>33.43</ele><time>2026-4-30T20:20:4Z</time></trkpt>
<trkpt lat="48.8904669" lon="2.6320201"><ele>34.87</ele><time>2026-4-30T20:20:7Z</time></trkpt>
<trkpt lat="48.8905931" lon="2.6322386"><ele>37.01</ele><time>2026-4-30T20:20:10Z</time></trkpt>
<trkpt lat="48.8906965" lon="2.6324674"><ele>39.98</ele><time>2026-4-30T20:20:13Z</time></trkpt>
<trkpt lat="48.8907915" lon="2.6327239"><ele>41.83</ele><time>2026-4-30T20:20:16Z</time></trkpt>
<trkpt lat="48.8908003" lon="2.6330348"><ele>44.00</ele><time>2026-4-30T20:20:19Z</time></trkpt>
<trkpt lat="48.8908994" lon="2.6333090"><ele>54.06</ele><time>2026-4-30T20:20:22Z</time></trkpt>
<trkpt lat="48.8910912" lon="2.6333731"><ele>57.23</ele><time>2026-4-30T20:20:25Z</time></trkpt>
<trkpt lat="48.8912336" lon="2.6336214"><ele>58.77</ele><time>2026-4-30T20:20:28Z</time></trkpt>
<trkpt lat="48.8913450" lon="2.6339006"><ele>55.53</ele><time>2026-4-30T20:20:31Z</time></trkpt>
<trkpt lat="48.8914420" lon="2.6341669"><ele>55.89</ele><time>2026-4-30T20:20:34Z</time></trkpt>
<trkpt lat="48.8915462" lon="2.6343959"><ele>55.61</ele><time>2026-4-30T20:20:37Z</time></trkpt>
<trkpt lat="48.8917073" lon="2.6346532"><ele>55.53</ele><time>2026-4-30T20:20:40Z</time></trkpt>
<trkpt lat="48.8918006" lon="2.6348926"><ele>52.63</ele><time>2026-4-30T20:20:43Z</time></trkpt>
<trkpt lat="48.8919123" lon="2.6351798"><ele>52.62</ele><time>2026-4-30T20:20:46Z</time></trkpt>
<trkpt lat="48.8920012" lon="2.6354198"><ele>52.69</ele><time>2026-4-30T20:20:49Z</time></trkpt>
<trkpt lat="48.8921419" lon="2.6356515"><ele>54.41</ele><time>2026-4-30T20:20:52Z</time></trkpt>
<trkpt lat="48.8922666" lon="2.6358563"><ele>55.19</ele><time>2026-4-30T20:20:55Z</time></trkpt>
<trkpt lat="48.8923762" lon="2.6361721"><ele>53.94</ele><time>2026-4-30T20:20:58Z</time></trkpt>
<trkpt lat="48.8924727" lon="2.6364255"><ele>54.45</ele><time>2026-4-30T20:21:1Z</time></trkpt>
<trkpt lat="48.8925719" lon="2.6367112"><ele>55.13</ele><time>2026-4-30T20:21:4Z</time></trkpt>
<trkpt lat="48.8927239" lon="2.6369983"><ele>56.60</ele><time>2026-4-30T20:21:7Z</time></trkpt>
<trkpt lat="48.8928180" lon="2.6372829"><ele>57.30</ele><time>2026-4-30T20:21:10Z</time></trkpt>
<trkpt lat="48.8929289" lon="2.6375228"><ele>56.02</ele><time>2026-4-30T20:21:13Z</time></trkpt>
<trkpt lat="48.8930366" lon="2.6377659"><ele>58.61</ele><time>2026-4-30T20:21:16Z</time></trkpt>
<trkpt lat="48.8931478" lon="2.6380079"><ele>59.72</ele><time>2026-4-30T20:21:19Z</time></trkpt>
<trkpt lat="48.8932726" lon="2.6382444"><ele>60.32</ele><time>2026-4-30T20:21:22Z</time></trkpt>
<trkpt lat="48.8934032" lon="2.6384814"><ele>60.68</ele><time>2026-4-30T20:21:25Z</time></trkpt>
<trkpt lat="48.8936199" lon="2.6385776"><ele>59.60</ele><time>2026-4-30T20:21:28Z</time></trkpt>
<trkpt lat="48.8938433" lon="2.6385594"><ele>57.66</ele><time>2026-4-30T20:21:31Z</time></trkpt>
<trkpt lat="48.8940488" lon="2.6385531"><ele>57.46</ele><time>2026-4-30T20:21:34Z</time></trkpt>
<trkpt lat="48.8941921" lon="2.6387499"><ele>60.27</ele><time>2026-4-30T20:21:37Z</time></trkpt>
<trkpt lat="48.8943185" lon="2.6389867"><ele>60.83</ele><time>2026-4-30T20:21:40Z</time></trkpt>
<trkpt lat="48.8944525" lon="2.6392071"><ele>62.02</ele><time>2026-4-30T20:21:43Z</time></trkpt>
<trkpt lat="48.8946009" lon="2.6394463"><ele>63.44</ele><time>2026-4-30T20:21:46Z</time></trkpt>
<trkpt lat="48.8947170" lon="2.6396590"><ele>64.70</ele><time>2026-4-30T20:21:49Z</time></trkpt>
<trkpt lat="48.8948295" lon="2.6398780"><ele>66.72</ele><time>2026-4-30T20:21:52Z</time></trkpt>
<trkpt lat="48.8949706" lon="2.6401664"><ele>65.73</ele><time>2026-4-30T20:21:55Z</time></trkpt>
<trkpt lat="48.8950681" lon="2.6404045"><ele>66.60</ele><time>2026-4-30T20:21:58Z</time></trkpt>
<trkpt lat="48.8952169" lon="2.6407028"><ele>66.88</ele><time>2026-4-30T20:22:1Z</time></trkpt>
<trkpt lat="48.8953420" lon="2.6409678"><ele>67.38</ele><time>2026-4-30T20:22:4Z</time></trkpt>
<trkpt lat="48.8954844" lon="2.6412052"><ele>67.59</ele><time>2026-4-30T20:22:7Z</time></trkpt>
<trkpt lat="48.8956490" lon="2.6414752"><ele>65.74</ele><time>2026-4-30T20:22:10Z</time></trkpt>
<trkpt lat="48.8957738" lon="2.6417163"><ele>67.62</ele><time>2026-4-30T20:22:13Z</time></trkpt>
<trkpt lat="48.8959112" lon="2.6420195"><ele>68.19</ele><time>2026-4-30T20:22:16Z</time></trkpt>
<trkpt lat="48.8960509" lon="2.6422528"><ele>68.79</ele><time>2026-4-30T20:22:19Z</time></trkpt>
<trkpt lat="48.8961692" lon="2.6424609"><ele>68.73</ele><time>2026-4-30T20:22:22Z</time></trkpt>
<trkpt lat="48.8963044" lon="2.6427471"><ele>68.44</ele><time>2026-4-30T20:22:25Z</time></trkpt>
<trkpt lat="48.8964438" lon="2.6429830"><ele>66.95</ele><time>2026-4-30T20:22:28Z</time></trkpt>
<trkpt lat="48.8965265" lon="2.6432776"><ele>67.71</ele><time>2026-4-30T20:22:31Z</time></trkpt>
<trkpt lat="48.8965902" lon="2.6435920"><ele>65.57</ele><time>2026-4-30T20:22:34Z</time></trkpt>
<trkpt lat="48.8967646" lon="2.6438517"><ele>65.52</ele><time>2026-4-30T20:22:37Z</time></trkpt>
<trkpt lat="48.8969753" lon="2.6439693"><ele>67.94</ele><time>2026-4-30T20:22:40Z</time></trkpt>
<trkpt lat="48.8970837" lon="2.6442790"><ele>66.60</ele><time>2026-4-30T20:22:43Z</time></trkpt>
<trkpt lat="48.8972084" lon="2.6444990"><ele>64.51</ele><time>2026-4-30T20:22:46Z</time></trkpt>
<trkpt lat="48.8973292" lon="2.6447595"><ele>67.12</ele><time>2026-4-30T20:22:49Z</time></trkpt>
<trkpt lat="48.8973914" lon="2.6450681"><ele>67.37</ele><time>2026-4-30T20:22:52Z</time></trkpt>
<trkpt lat="48.8974126" lon="2.6453485"><ele>67.94</ele><time>2026-4-30T20:22:55Z</time></trkpt>
<trkpt lat="48.8974842" lon="2.6456044"><ele>65.02</ele><time>2026-4-30T20:22:58Z</time></trkpt>
<trkpt lat="48.8973908" lon="2.6458569"><ele>65.93</ele><time>2026-4-30T20:23:1Z</time></trkpt>
<trkpt lat="48.8975072" lon="2.6460847"><ele>68.23</ele><time>2026-4-30T20:23:4Z</time></trkpt>
<trkpt lat="48.8976738" lon="2.6462653"><ele>66.96</ele><time>2026-4-30T20:23:7Z</time></trkpt>
<trkpt lat="48.8978280" lon="2.6464808"><ele>62.73</ele><time>2026-4-30T20:23:10Z</time></trkpt>
<trkpt lat="48.8980133" lon="2.6466757"><ele>59.87</ele><time>2026-4-30T20:23:13Z</time></trkpt>
<trkpt lat="48.8981876" lon="2.6468007"><ele>58.34</ele><time>2026-4-30T20:23:16Z</time></trkpt>
<trkpt lat="48.8983262" lon="2.6469866"><ele>57.37</ele><time>2026-4-30T20:23:19Z</time></trkpt>
<trkpt lat="48.8984901" lon="2.6471696"><ele>58.05</ele><time>2026-4-30T20:23:22Z</time></trkpt>
<trkpt lat="48.8986461" lon="2.6473407"><ele>58.53</ele><time>2026-4-30T20:23:25Z</time></trkpt>
<trkpt lat="48.8987829" lon="2.6475216"><ele>59.13</ele><time>2026-4-30T20:23:28Z</time></trkpt>
<trkpt lat="48.8989679" lon="2.6477476"><ele>59.01</ele><time>2026-4-30T20:23:31Z</time></trkpt>
<trkpt lat="48.8991606" lon="2.6479553"><ele>59.87</ele><time>2026-4-30T20:23:34Z</time></trkpt>
<trkpt lat="48.8993492" lon="2.6480505"><ele>61.42</ele><time>2026-4-30T20:23:37Z</time></trkpt>
<trkpt lat="48.8995846" lon="2.6481052"><ele>62.49</ele><time>2026-4-30T20:23:40Z</time></trkpt>
<trkpt lat="48.8997753" lon="2.6481240"><ele>63.75</ele><time>2026-4-30T20:23:43Z</time></trkpt>
<trkpt lat="48.8999626" lon="2.6481103"><ele>64.83</ele><time>2026-4-30T20:23:46Z</time></trkpt>
<trkpt lat="48.9001611" lon="2.6481214"><ele>65.50</ele><time>2026-4-30T20:23:49Z</time></trkpt>
<trkpt lat="48.9003429" lon="2.6481470"><ele>66.19</ele><time>2026-4-30T20:23:52Z</time></trkpt>
<trkpt lat="48.9005349" lon="2.6481485"><ele>66.11</ele><time>2026-4-30T20:23:55Z</time></trkpt>
<trkpt lat="48.9007108" lon="2.6482193"><ele>66.59</ele><time>2026-4-30T20:23:58Z</time></trkpt>
<trkpt lat="48.9008886" lon="2.6482985"><ele>66.76</ele><time>2026-4-30T20:24:1Z</time></trkpt>
<trkpt lat="48.9010614" lon="2.6484189"><ele>66.11</ele><time>2026-4-30T20:24:4Z</time></trkpt>
<trkpt lat="48.9012292" lon="2.6485403"><ele>65.89</ele><time>2026-4-30T20:24:7Z</time></trkpt>
<trkpt lat="48.9013868" lon="2.6487509"><ele>67.25</ele><time>2026-4-30T20:24:10Z</time></trkpt>
<trkpt lat="48.9015598" lon="2.6489344"><ele>68.63</ele><time>2026-4-30T20:24:13Z</time></trkpt>
<trkpt lat="48.9017290" lon="2.6490876"><ele>68.35</ele><time>2026-4-30T20:24:16Z</time></trkpt>
<trkpt lat="48.9018919" lon="2.6492574"><ele>69.31</ele><time>2026-4-30T20:24:19Z</time></trkpt>
<trkpt lat="48.9020453" lon="2.6494123"><ele>68.05</ele><time>2026-4-30T20:24:22Z</time></trkpt>
<trkpt lat="48.9022316" lon="2.6496004"><ele>66.62</ele><time>2026-4-30T20:24:25Z</time></trkpt>
<trkpt lat="48.9024210" lon="2.6498174"><ele>67.17</ele><time>2026-4-30T20:24:28Z</time></trkpt>
<trkpt lat="48.9025680" lon="2.6499958"><ele>67.73</ele><time>2026-4-30T20:24:31Z</time></trkpt>
<trkpt lat="48.9027091" lon="2.6501796"><ele>69.58</ele><time>2026-4-30T20:24:34Z</time></trkpt>
<trkpt lat="48.9028640" lon="2.6504572"><ele>70.91</ele><time>2026-4-30T20:24:37Z</time></trkpt>
<trkpt lat="48.9029647" lon="2.6506887"><ele>69.09</ele><time>2026-4-30T20:24:40Z</time></trkpt>
<trkpt lat="48.9030572" lon="2.6509348"><ele>67.75</ele><time>2026-4-30T20:24:43Z</time></trkpt>
<trkpt lat="48.9031721" lon="2.6511563"><ele>67.96</ele><time>2026-4-30T20:24:46Z</time></trkpt>
<trkpt lat="48.9033078" lon="2.6513830"><ele>67.55</ele><time>2026-4-30T20:24:49Z</time></trkpt>
<trkpt lat="48.9034309" lon="2.6516109"><ele>67.70</ele><time>2026-4-30T20:24:52Z</time></trkpt>
<trkpt lat="48.9035698" lon="2.6518275"><ele>66.51</ele><time>2026-4-30T20:24:55Z</time></trkpt>
<trkpt lat="48.9037218" lon="2.6520045"><ele>66.61</ele><time>2026-4-30T20:24:58Z</time></trkpt>
<trkpt lat="48.9038874" lon="2.6521615"><ele>66.85</ele><time>2026-4-30T20:25:1Z</time></trkpt>
<trkpt lat="48.9040543" lon="2.6522993"><ele>66.83</ele><time>2026-4-30T20:25:4Z</time></trkpt>
<trkpt lat="48.9042248" lon="2.6524331"><ele>66.58</ele><time>2026-4-30T20:25:7Z</time></trkpt>
<trkpt lat="48.9043904" lon="2.6525684"><ele>66.57</ele><time>2026-4-30T20:25:10Z</time></trkpt>
<trkpt lat="48.9045546" lon="2.6527089"><ele>66.98</ele><time>2026-4-30T20:25:13Z</time></trkpt>
<trkpt lat="48.9047157" lon="2.6528395"><ele>67.65</ele><time>2026-4-30T20:25:16Z</time></trkpt>
<trkpt lat="48.9048832" lon="2.6530032"><ele>67.80</ele><time>2026-4-30T20:25:19Z</time></trkpt>
<trkpt lat="48.9050361" lon="2.6531583"><ele>67.71</ele><time>2026-4-30T20:25:22Z</time></trkpt>
<trkpt lat="48.9051994" lon="2.6533092"><ele>67.19</ele><time>2026-4-30T20:25:25Z</time></trkpt>
<trkpt lat="48.9053600" lon="2.6534614"><ele>67.81</ele><time>2026-4-30T20:25:28Z</time></trkpt>
<trkpt lat="48.9055151" lon="2.6536347"><ele>68.31</ele><time>2026-4-30T20:25:31Z</time></trkpt>
<trkpt lat="48.9056719" lon="2.6537942"><ele>68.29</ele><time>2026-4-30T20:25:34Z</time></trkpt>
<trkpt lat="48.9058238" lon="2.6539557"><ele>68.52</ele><time>2026-4-30T20:25:37Z</time></trkpt>
<trkpt lat="48.9060204" lon="2.6541637"><ele>69.20</ele><time>2026-4-30T20:25:40Z</time></trkpt>
<trkpt lat="48.9062101" lon="2.6543826"><ele>69.17</ele><time>2026-4-30T20:25:43Z</time></trkpt>
<trkpt lat="48.9064107" lon="2.6545842"><ele>69.59</ele><time>2026-4-30T20:25:46Z</time></trkpt>
<trkpt lat="48.9065631" lon="2.6547319"><ele>70.12</ele><time>2026-4-30T20:25:49Z</time></trkpt>
<trkpt lat="48.9067686" lon="2.6549061"><ele>70.87</ele><time>2026-4-30T20:25:52Z</time></trkpt>
<trkpt lat="48.9069336" lon="2.6550266"><ele>70.87</ele><time>2026-4-30T20:25:55Z</time></trkpt>
<trkpt lat="48.9070972" lon="2.6551482"><ele>70.79</ele><time>2026-4-30T20:25:58Z</time></trkpt>
<trkpt lat="48.9073088" lon="2.6552756"><ele>70.78</ele><time>2026-4-30T20:26:1Z</time></trkpt>
<trkpt lat="48.9075158" lon="2.6553878"><ele>71.60</ele><time>2026-4-30T20:26:4Z</time></trkpt>
<trkpt lat="48.9077089" lon="2.6554956"><ele>72.14</ele><time>2026-4-30T20:26:7Z</time></trkpt>
<trkpt lat="48.9079037" lon="2.6555824"><ele>72.53</ele><time>2026-4-30T20:26:10Z</time></trkpt>
<trkpt lat="48.9081171" lon="2.6556775"><ele>72.98</ele><time>2026-4-30T20:26:13Z</time></trkpt>
<trkpt lat="48.9083383" lon="2.6557860"><ele>73.91</ele><time>2026-4-30T20:26:16Z</time></trkpt>
<trkpt lat="48.9085116" lon="2.6558620"><ele>74.38</ele><time>2026-4-30T20:26:19Z</time></trkpt>
<trkpt lat="48.9086858" lon="2.6559501"><ele>74.55</ele><time>2026-4-30T20:26:22Z</time></trkpt>
<trkpt lat="48.9088572" lon="2.6560340"><ele>75.30</ele><time>2026-4-30T20:26:25Z</time></trkpt>
<trkpt lat="48.9090370" lon="2.6561096"><ele>75.39</ele><time>2026-4-30T20:26:28Z</time></trkpt>
<trkpt lat="48.9092586" lon="2.6562275"><ele>76.77</ele><time>2026-4-30T20:26:31Z</time></trkpt>
<trkpt lat="48.9094680" lon="2.6563624"><ele>77.99</ele><time>2026-4-30T20:26:34Z</time></trkpt>
<trkpt lat="48.9096618" lon="2.6565361"><ele>79.46</ele><time>2026-4-30T20:26:37Z</time></trkpt>
<trkpt lat="48.9098579" lon="2.6567191"><ele>81.51</ele><time>2026-4-30T20:26:40Z</time></trkpt>
<trkpt lat="48.9100394" lon="2.6568989"><ele>82.31</ele><time>2026-4-30T20:26:43Z</time></trkpt>
<trkpt lat="48.9102169" lon="2.6570814"><ele>82.54</ele><time>2026-4-30T20:26:46Z</time></trkpt>
<trkpt lat="48.9104049" lon="2.6572650"><ele>82.79</ele><time>2026-4-30T20:26:49Z</time></trkpt>
<trkpt lat="48.9105838" lon="2.6574468"><ele>82.81</ele><time>2026-4-30T20:26:52Z</time></trkpt>
<trkpt lat="48.9107654" lon="2.6576194"><ele>83.22</ele><time>2026-4-30T20:26:55Z</time></trkpt>
<trkpt lat="48.9109355" lon="2.6577939"><ele>83.50</ele><time>2026-4-30T20:26:58Z</time></trkpt>
<trkpt lat="48.9111149" lon="2.6579153"><ele>84.30</ele><time>2026-4-30T20:27:1Z</time></trkpt>
<trkpt lat="48.9113231" lon="2.6579782"><ele>84.32</ele><time>2026-4-30T20:27:4Z</time></trkpt>
<trkpt lat="48.9115356" lon="2.6579866"><ele>84.44</ele><time>2026-4-30T20:27:7Z</time></trkpt>
<trkpt lat="48.9117367" lon="2.6579727"><ele>84.38</ele><time>2026-4-30T20:27:10Z</time></trkpt>
<trkpt lat="48.9119467" lon="2.6579807"><ele>85.38</ele><time>2026-4-30T20:27:13Z</time></trkpt>
<trkpt lat="48.9121598" lon="2.6580398"><ele>86.25</ele><time>2026-4-30T20:27:16Z</time></trkpt>
<trkpt lat="48.9123616" lon="2.6581031"><ele>86.89</ele><time>2026-4-30T20:27:19Z</time></trkpt>
<trkpt lat="48.9125636" lon="2.6581672"><ele>87.52</ele><time>2026-4-30T20:27:22Z</time></trkpt>
<trkpt lat="48.9127578" lon="2.6582388"><ele>88.05</ele><time>2026-4-30T20:27:25Z</time></trkpt>
<trkpt lat="48.9129496" lon="2.6583071"><ele>88.69</ele><time>2026-4-30T20:27:28Z</time></trkpt>
<trkpt lat="48.9131368" lon="2.6583667"><ele>89.43</ele><time>2026-4-30T20:27:31Z</time></trkpt>
<trkpt lat="48.9133220" lon="2.6584252"><ele>90.11</ele><time>2026-4-30T20:27:34Z</time></trkpt>
<trkpt lat="48.9135016" lon="2.6584656"><ele>90.57</ele><time>2026-4-30T20:27:37Z</time></trkpt>
<trkpt lat="48.9137061" lon="2.6585681"><ele>91.75</ele><time>2026-4-30T20:27:40Z</time></trkpt>
<trkpt lat="48.9138296" lon="2.6588316"><ele>92.06</ele><time>2026-4-30T20:27:43Z</time></trkpt>
<trkpt lat="48.9137998" lon="2.6591083"><ele>91.67</ele><time>2026-4-30T20:27:46Z</time></trkpt>
<trkpt lat="48.9137677" lon="2.6594081"><ele>91.17</ele><time>2026-4-30T20:27:49Z</time></trkpt>
<trkpt lat="48.9137445" lon="2.6597192"><ele>88.92</ele><time>2026-4-30T20:27:52Z</time></trkpt>
<trkpt lat="48.9136989" lon="2.6600273"><ele>88.72</ele><time>2026-4-30T20:27:55Z</time></trkpt>
<trkpt lat="48.9136349" lon="2.6603007"><ele>87.96</ele><time>2026-4-30T20:27:58Z</time></trkpt>
<trkpt lat="48.9136188" lon="2.6606398"><ele>88.81</ele><time>2026-4-30T20:28:1Z</time></trkpt>
<trkpt lat="48.9136474" lon="2.6609272"><ele>89.38</ele><time>2026-4-30T20:28:4Z</time></trkpt>
<trkpt lat="48.9136766" lon="2.6612388"><ele>91.41</ele><time>2026-4-30T20:28:7Z</time></trkpt>
<trkpt lat="48.9136799" lon="2.6615560"><ele>90.84</ele><time>2026-4-30T20:28:10Z</time></trkpt>
<trkpt lat="48.9136669" lon="2.6618333"><ele>92.15</ele><time>2026-4-30T20:28:13Z</time></trkpt>
<trkpt lat="48.9136451" lon="2.6621125"><ele>94.04</ele><time>2026-4-30T20:28:16Z</time></trkpt>
<trkpt lat="48.9136993" lon="2.6623850"><ele>94.69</ele><time>2026-4-30T20:28:19Z</time></trkpt>
<trkpt lat="48.9137767" lon="2.6626509"><ele>101.68</ele><time>2026-4-30T20:28:22Z</time></trkpt>
<trkpt lat="48.9137603" lon="2.6629303"><ele>103.53</ele><time>2026-4-30T20:28:25Z</time></trkpt>
<trkpt lat="48.9137753" lon="2.6632151"><ele>107.10</ele><time>2026-4-30T20:28:28Z</time></trkpt>
<trkpt lat="48.9138199" lon="2.6634991"><ele>109.85</ele><time>2026-4-30T20:28:31Z</time></trkpt>
<trkpt lat="48.9138591" lon="2.6637876"><ele>114.81</ele><time>2026-4-30T20:28:34Z</time></trkpt>
<trkpt lat="48.9138891" lon="2.6640753"><ele>114.40</ele><time>2026-4-30T20:28:37Z</time></trkpt>
<trkpt lat="48.9139398" lon="2.6643607"><ele>116.22</ele><time>2026-4-30T20:28:40Z</time></trkpt>
<trkpt lat="48.9140012" lon="2.6646303"><ele>122.61</ele><time>2026-4-30T20:28:43Z</time></trkpt>
<trkpt lat="48.9140649" lon="2.6648879"><ele>127.78</ele><time>2026-4-30T20:28:46Z</time></trkpt>
<trkpt lat="48.9141367" lon="2.6651593"><ele>130.22</ele><time>2026-4-30T20:28:49Z</time></trkpt>
<trkpt lat="48.9142150" lon="2.6654145"><ele>130.75</ele><time>2026-4-30T20:28:52Z</time></trkpt>
<trkpt lat="48.9144061" lon="2.6652823"><ele>130.30</ele><time>2026-4-30T20:28:55Z</time></trkpt>
<trkpt lat="48.9146003" lon="2.6652165"><ele>131.07</ele><time>2026-4-30T20:28:58Z</time></trkpt>
<trkpt lat="48.9147199" lon="2.6654209"><ele>133.02</ele><time>2026-4-30T20:29:1Z</time></trkpt>
<trkpt lat="48.9149023" lon="2.6655406"><ele>133.61</ele><time>2026-4-30T20:29:4Z</time></trkpt>
<trkpt lat="48.9150812" lon="2.6656470"><ele>133.31</ele><time>2026-4-30T20:29:7Z</time></trkpt>
<trkpt lat="48.9152853" lon="2.6657436"><ele>132.32</ele><time>2026-4-30T20:29:10Z</time></trkpt>
<trkpt lat="48.9154671" lon="2.6658599"><ele>132.41</ele><time>2026-4-30T20:29:13Z</time></trkpt>
<trkpt lat="48.9156462" lon="2.6659570"><ele>133.82</ele><time>2026-4-30T20:29:16Z</time></trkpt>
<trkpt lat="48.9158285" lon="2.6659872"><ele>137.54</ele><time>2026-4-30T20:29:19Z</time></trkpt>
<trkpt lat="48.9160321" lon="2.6659292"><ele>136.53</ele><time>2026-4-30T20:29:22Z</time></trkpt>
<trkpt lat="48.9162097" lon="2.6660373"><ele>134.64</ele><time>2026-4-30T20:29:25Z</time></trkpt>
<trkpt lat="48.9161667" lon="2.6663601"><ele>139.99</ele><time>2026-4-30T20:29:28Z</time></trkpt>
<trkpt lat="48.9160597" lon="2.6666030"><ele>141.73</ele><time>2026-4-30T20:29:31Z</time></trkpt>
<trkpt lat="48.9159601" lon="2.6669031"><ele>141.73</ele><time>2026-4-30T20:29:34Z</time></trkpt>
<trkpt lat="48.9158846" lon="2.6671752"><ele>142.10</ele><time>2026-4-30T20:29:37Z</time></trkpt>
<trkpt lat="48.9157896" lon="2.6674098"><ele>142.80</ele><time>2026-4-30T20:29:40Z</time></trkpt>
<trkpt lat="48.9156895" lon="2.6676719"><ele>140.98</ele><time>2026-4-30T20:29:43Z</time></trkpt>
<trkpt lat="48.9156493" lon="2.6679585"><ele>146.61</ele><time>2026-4-30T20:29:46Z</time></trkpt>
<trkpt lat="48.9155246" lon="2.6682035"><ele>145.84</ele><time>2026-4-30T20:29:49Z</time></trkpt>
<trkpt lat="48.9154504" lon="2.6684792"><ele>143.85</ele><time>2026-4-30T20:29:52Z</time></trkpt>
<trkpt lat="48.9153777" lon="2.6688043"><ele>143.51</ele><time>2026-4-30T20:29:55Z</time></trkpt>
<trkpt lat="48.9153923" lon="2.6691815"><ele>141.49</ele><time>2026-4-30T20:29:58Z</time></trkpt>
<trkpt lat="48.9153068" lon="2.6695060"><ele>141.52</ele><time>2026-4-30T20:30:1Z</time></trkpt>
<trkpt lat="48.9151987" lon="2.6697250"><ele>140.00</ele><time>2026-4-30T20:30:4Z</time></trkpt>
<trkpt lat="48.9150355" lon="2.6699570"><ele>144.03</ele><time>2026-4-30T20:30:7Z</time></trkpt>
<trkpt lat="48.9149251" lon="2.6702081"><ele>144.94</ele><time>2026-4-30T20:30:10Z</time></trkpt>
<trkpt lat="48.9148641" lon="2.6705037"><ele>142.31</ele><time>2026-4-30T20:30:13Z</time></trkpt>
<trkpt lat="48.9147647" lon="2.6707556"><ele>143.47</ele><time>2026-4-30T20:30:16Z</time></trkpt>
<trkpt lat="48.9148146" lon="2.6710210"><ele>141.42</ele><time>2026-4-30T20:30:19Z</time></trkpt>
<trkpt lat="48.9150322" lon="2.6710494"><ele>139.26</ele><time>2026-4-30T20:30:22Z</time></trkpt>
<trkpt lat="48.9152281" lon="2.6711159"><ele>141.09</ele><time>2026-4-30T20:30:25Z</time></trkpt>
<trkpt lat="48.9154259" lon="2.6712321"><ele>145.59</ele><time>2026-4-30T20:30:28Z</time></trkpt>
<trkpt lat="48.9156109" lon="2.6712710"><ele>147.84</ele><time>2026-4-30T20:30:31Z</time></trkpt>
<trkpt lat="48.9158091" lon="2.6712933"><ele>147.14</ele><time>2026-4-30T20:30:34Z</time></trkpt>
<trkpt lat="48.9159918" lon="2.6713430"><ele>144.74</ele><time>2026-4-30T20:30:37Z</time></trkpt>
<trkpt lat="48.9161779" lon="2.6713593"><ele>145.48</ele><time>2026-4-30T20:30:40Z</time></trkpt>
<trkpt lat="48.9163723" lon="2.6714606"><ele>145.34</ele><time>2026-4-30T20:30:43Z</time></trkpt>
<trkpt lat="48.9165901" lon="2.6715198"><ele>143.69</ele><time>2026-4-30T20:30:46Z</time></trkpt>
<trkpt lat="48.9167956" lon="2.6716073"><ele>145.78</ele><time>2026-4-30T20:30:49Z</time></trkpt>
<trkpt lat="48.9169992" lon="2.6716252"><ele>145.27</ele><time>2026-4-30T20:30:52Z</time></trkpt>
<trkpt lat="48.9171795" lon="2.6714550"><ele>143.92</ele><time>2026-4-30T20:30:55Z</time></trkpt>
<trkpt lat="48.9174005" lon="2.6714459"><ele>148.48</ele><time>2026-4-30T20:30:58Z</time></trkpt>
<trkpt lat="48.9175988" lon="2.6713912"><ele>142.27</ele><time>2026-4-30T20:31:1Z</time></trkpt>
<trkpt lat="48.9177812" lon="2.6714054"><ele>143.81</ele><time>2026-4-30T20:31:4Z</time></trkpt>
<trkpt lat="48.9179509" lon="2.6715367"><ele>143.00</ele><time>2026-4-30T20:31:7Z</time></trkpt>
<trkpt lat="48.9181307" lon="2.6716420"><ele>138.85</ele><time>2026-4-30T20:31:10Z</time></trkpt>
<trkpt lat="48.9183209" lon="2.6717398"><ele>139.53</ele><time>2026-4-30T20:31:13Z</time></trkpt>
<trkpt lat="48.9185075" lon="2.6717144"><ele>141.52</ele><time>2026-4-30T20:31:16Z</time></trkpt>
<trkpt lat="48.9186994" lon="2.6717107"><ele>139.62</ele><time>2026-4-30T20:31:19Z</time></trkpt>
<trkpt lat="48.9188986" lon="2.6716436"><ele>136.64</ele><time>2026-4-30T20:31:22Z</time></trkpt>
<trkpt lat="48.9191190" lon="2.6714874"><ele>136.34</ele><time>2026-4-30T20:31:25Z</time></trkpt>
<trkpt lat="48.9193051" lon="2.6714016"><ele>134.69</ele><time>2026-4-30T20:31:28Z</time></trkpt>
<trkpt lat="48.9195124" lon="2.6713220"><ele>132.72</ele><time>2026-4-30T20:31:31Z</time></trkpt>
<trkpt lat="48.9196682" lon="2.6711520"><ele>132.47</ele><time>2026-4-30T20:31:34Z</time></trkpt>
<trkpt lat="48.9198517" lon="2.6710405"><ele>131.63</ele><time>2026-4-30T20:31:37Z</time></trkpt>
<trkpt lat="48.9200175" lon="2.6711571"><ele>131.58</ele><time>2026-4-30T20:31:40Z</time></trkpt>
<trkpt lat="48.9199633" lon="2.6708817"><ele>132.44</ele><time>2026-4-30T20:31:43Z</time></trkpt>
<trkpt lat="48.9199087" lon="2.6705436"><ele>131.56</ele><time>2026-4-30T20:31:46Z</time></trkpt>
<trkpt lat="48.9198677" lon="2.6702328"><ele>129.61</ele><time>2026-4-30T20:31:49Z</time></trkpt>
<trkpt lat="48.9198837" lon="2.6698968"><ele>131.53</ele><time>2026-4-30T20:31:52Z</time></trkpt>
<trkpt lat="48.9198750" lon="2.6696159"><ele>130.70</ele><time>2026-4-30T20:31:55Z</time></trkpt>
<trkpt lat="48.9198340" lon="2.6693028"><ele>130.28</ele><time>2026-4-30T20:31:58Z</time></trkpt>
<trkpt lat="48.9197762" lon="2.6690196"><ele>128.67</ele><time>2026-4-30T20:32:1Z</time></trkpt>
<trkpt lat="48.9196961" lon="2.6687408"><ele>128.52</ele><time>2026-4-30T20:32:4Z</time></trkpt>
<trkpt lat="48.9195541" lon="2.6685507"><ele>128.46</ele><time>2026-4-30T20:32:7Z</time></trkpt>
<trkpt lat="48.9193998" lon="2.6683725"><ele>128.60</ele><time>2026-4-30T20:32:10Z</time></trkpt>
<trkpt lat="48.9192416" lon="2.6682052"><ele>128.92</ele><time>2026-4-30T20:32:13Z</time></trkpt>
<trkpt lat="48.9191164" lon="2.6679846"><ele>129.43</ele><time>2026-4-30T20:32:16Z</time></trkpt>
<trkpt lat="48.9190604" lon="2.6677025"><ele>129.90</ele><time>2026-4-30T20:32:19Z</time></trkpt>
<trkpt lat="48.9190297" lon="2.6674029"><ele>129.29</ele><time>2026-4-30T20:32:22Z</time></trkpt>
<trkpt lat="48.9189879" lon="2.6671072"><ele>128.69</ele><time>2026-4-30T20:32:25Z</time></trkpt>
<trkpt lat="48.9189633" lon="2.6668045"><ele>128.65</ele><time>2026-4-30T20:32:28Z</time></trkpt>
<trkpt lat="48.9189261" lon="2.6665132"><ele>128.02</ele><time>2026-4-30T20:32:31Z</time></trkpt>
<trkpt lat="48.9188891" lon="2.6662180"><ele>128.51</ele><time>2026-4-30T20:32:34Z</time></trkpt>
<trkpt lat="48.9188621" lon="2.6659293"><ele>128.65</ele><time>2026-4-30T20:32:37Z</time></trkpt>
<trkpt lat="48.9188503" lon="2.6656327"><ele>129.05</ele><time>2026-4-30T20:32:40Z</time></trkpt>
<trkpt lat="48.9188864" lon="2.6653381"><ele>128.94</ele><time>2026-4-30T20:32:43Z</time></trkpt>
<trkpt lat="48.9189623" lon="2.6650670"><ele>128.84</ele><time>2026-4-30T20:32:46Z</time></trkpt>
<trkpt lat="48.9191862" lon="2.6650341"><ele>129.91</ele><time>2026-4-30T20:32:49Z</time></trkpt>
<trkpt lat="48.9194175" lon="2.6650033"><ele>130.23</ele><time>2026-4-30T20:32:52Z</time></trkpt>
<trkpt lat="48.9196203" lon="2.6649769"><ele>131.94</ele><time>2026-4-30T20:32:55Z</time></trkpt>
<trkpt lat="48.9198250" lon="2.6649601"><ele>129.73</ele><time>2026-4-30T20:32:58Z</time></trkpt>
<trkpt lat="48.9200430" lon="2.6649564"><ele>127.48</ele><time>2026-4-30T20:33:1Z</time></trkpt>
<trkpt lat="48.9202490" lon="2.6649530"><ele>125.86</ele><time>2026-4-30T20:33:4Z</time></trkpt>
<trkpt lat="48.9204610" lon="2.6649719"><ele>125.08</ele><time>2026-4-30T20:33:7Z</time></trkpt>
<trkpt lat="48.9206709" lon="2.6649995"><ele>124.14</ele><time>2026-4-30T20:33:10Z</time></trkpt>
<trkpt lat="48.9208809" lon="2.6650353"><ele>123.89</ele><time>2026-4-30T20:33:13Z</time></trkpt>
<trkpt lat="48.9210856" lon="2.6650721"><ele>122.14</ele><time>2026-4-30T20:33:16Z</time></trkpt>
<trkpt lat="48.9212699" lon="2.6651677"><ele>121.05</ele><time>2026-4-30T20:33:19Z</time></trkpt>
<trkpt lat="48.9214536" lon="2.6652734"><ele>119.58</ele><time>2026-4-30T20:33:22Z</time></trkpt>
<trkpt lat="48.9216330" lon="2.6654022"><ele>119.43</ele><time>2026-4-30T20:33:25Z</time></trkpt>
<trkpt lat="48.9218169" lon="2.6655470"><ele>117.63</ele><time>2026-4-30T20:33:28Z</time></trkpt>
<trkpt lat="48.9218299" lon="2.6658242"><ele>116.43</ele><time>2026-4-30T20:33:31Z</time></trkpt>
<trkpt lat="48.9218251" lon="2.6661395"><ele>116.55</ele><time>2026-4-30T20:33:34Z</time></trkpt>
<trkpt lat="48.9217760" lon="2.6664373"><ele>117.21</ele><time>2026-4-30T20:33:37Z</time></trkpt>
<trkpt lat="48.9217352" lon="2.6667341"><ele>118.21</ele><time>2026-4-30T20:33:40Z</time></trkpt>
<trkpt lat="48.9216677" lon="2.6670858"><ele>119.16</ele><time>2026-4-30T20:33:43Z</time></trkpt>
<trkpt lat="48.9216173" lon="2.6674359"><ele>119.48</ele><time>2026-4-30T20:33:46Z</time></trkpt>
<trkpt lat="48.9216309" lon="2.6677279"><ele>119.19</ele><time>2026-4-30T20:33:49Z</time></trkpt>
<trkpt lat="48.9217195" lon="2.6679996"><ele>120.21</ele><time>2026-4-30T20:33:52Z</time></trkpt>
<trkpt lat="48.9218246" lon="2.6682376"><ele>119.38</ele><time>2026-4-30T20:33:55Z</time></trkpt>
<trkpt lat="48.9219657" lon="2.6684998"><ele>118.49</ele><time>2026-4-30T20:33:58Z</time></trkpt>
<trkpt lat="48.9220899" lon="2.6687190"><ele>118.81</ele><time>2026-4-30T20:34:1Z</time></trkpt>
<trkpt lat="48.9222714" lon="2.6689031"><ele>119.64</ele><time>2026-4-30T20:34:4Z</time></trkpt>
<trkpt lat="48.9224846" lon="2.6689616"><ele>120.86</ele><time>2026-4-30T20:34:7Z</time></trkpt>
<trkpt lat="48.9226436" lon="2.6691326"><ele>122.05</ele><time>2026-4-30T20:34:10Z</time></trkpt>
<trkpt lat="48.9226597" lon="2.6694152"><ele>122.35</ele><time>2026-4-30T20:34:13Z</time></trkpt>
<trkpt lat="48.9226100" lon="2.6697291"><ele>124.48</ele><time>2026-4-30T20:34:16Z</time></trkpt>
<trkpt lat="48.9226239" lon="2.6700288"><ele>125.59</ele><time>2026-4-30T20:34:19Z</time></trkpt>
<trkpt lat="48.9226203" lon="2.6703458"><ele>125.18</ele><time>2026-4-30T20:34:22Z</time></trkpt>
<trkpt lat="48.9226162" lon="2.6706562"><ele>126.31</ele><time>2026-4-30T20:34:25Z</time></trkpt>
<trkpt lat="48.9226041" lon="2.6709716"><ele>125.91</ele><time>2026-4-30T20:34:28Z</time></trkpt>
<trkpt lat="48.9225880" lon="2.6712871"><ele>126.59</ele><time>2026-4-30T20:34:31Z</time></trkpt>
<trkpt lat="48.9225774" lon="2.6715983"><ele>128.56</ele><time>2026-4-30T20:34:34Z</time></trkpt>
<trkpt lat="48.9225651" lon="2.6718936"><ele>127.26</ele><time>2026-4-30T20:34:37Z</time></trkpt>
<trkpt lat="48.9225424" lon="2.6722618"><ele>123.32</ele><time>2026-4-30T20:34:40Z</time></trkpt>
<trkpt lat="48.9225160" lon="2.6725874"><ele>124.82</ele><time>2026-4-30T20:34:43Z</time></trkpt>
<trkpt lat="48.9225317" lon="2.6729228"><ele>123.13</ele><time>2026-4-30T20:34:46Z</time></trkpt>
<trkpt lat="48.9225184" lon="2.6732035"><ele>122.86</ele><time>2026-4-30T20:34:49Z</time></trkpt>
<trkpt lat="48.9224805" lon="2.6735497"><ele>124.40</ele><time>2026-4-30T20:34:52Z</time></trkpt>
<trkpt lat="48.9224567" lon="2.6738955"><ele>126.56</ele><time>2026-4-30T20:34:55Z</time></trkpt>
<trkpt lat="48.9224560" lon="2.6742266"><ele>129.85</ele><time>2026-4-30T20:34:58Z</time></trkpt>
<trkpt lat="48.9224951" lon="2.6745199"><ele>131.98</ele><time>2026-4-30T20:35:1Z</time></trkpt>
<trkpt lat="48.9224937" lon="2.6747991"><ele>131.69</ele><time>2026-4-30T20:35:4Z</time></trkpt>
<trkpt lat="48.9224840" lon="2.6750996"><ele>131.20</ele><time>2026-4-30T20:35:7Z</time></trkpt>
<trkpt lat="48.9224625" lon="2.6754101"><ele>130.33</ele><time>2026-4-30T20:35:10Z</time></trkpt>
<trkpt lat="48.9224420" lon="2.6757070"><ele>128.46</ele><time>2026-4-30T20:35:13Z</time></trkpt>
<trkpt lat="48.9224194" lon="2.6759949"><ele>130.89</ele><time>2026-4-30T20:35:16Z</time></trkpt>
<trkpt lat="48.9224013" lon="2.6762898"><ele>130.38</ele><time>2026-4-30T20:35:19Z</time></trkpt>
<trkpt lat="48.9223892" lon="2.6765874"><ele>128.53</ele><time>2026-4-30T20:35:22Z</time></trkpt>
<trkpt lat="48.9223677" lon="2.6768783"><ele>128.82</ele><time>2026-4-30T20:35:25Z</time></trkpt>
<trkpt lat="48.9223436" lon="2.6771517"><ele>125.82</ele><time>2026-4-30T20:35:28Z</time></trkpt>
<trkpt lat="48.9223276" lon="2.6774866"><ele>124.97</ele><time>2026-4-30T20:35:31Z</time></trkpt>
<trkpt lat="48.9223310" lon="2.6777928"><ele>126.18</ele><time>2026-4-30T20:35:34Z</time></trkpt>
<trkpt lat="48.9223039" lon="2.6780928"><ele>125.65</ele><time>2026-4-30T20:35:37Z</time></trkpt>
<trkpt lat="48.9222764" lon="2.6783947"><ele>124.71</ele><time>2026-4-30T20:35:40Z</time></trkpt>
<trkpt lat="48.9222680" lon="2.6787477"><ele>125.23</ele><time>2026-4-30T20:35:43Z</time></trkpt>
<trkpt lat="48.9222814" lon="2.6790727"><ele>124.27</ele><time>2026-4-30T20:35:46Z</time></trkpt>
<trkpt lat="48.9222673" lon="2.6793806"><ele>123.22</ele><time>2026-4-30T20:35:49Z</time></trkpt>
<trkpt lat="48.9222516" lon="2.6797480"><ele>125.12</ele><time>2026-4-30T20:35:52Z</time></trkpt>
<trkpt lat="48.9222058" lon="2.6801251"><ele>127.17</ele><time>2026-4-30T20:35:55Z</time></trkpt>
<trkpt lat="48.9221261" lon="2.6804117"><ele>127.41</ele><time>2026-4-30T20:35:58Z</time></trkpt>
<trkpt lat="48.9219994" lon="2.6806152"><ele>130.77</ele><time>2026-4-30T20:36:1Z</time></trkpt>
<trkpt lat="48.9218546" lon="2.6808983"><ele>127.65</ele><time>2026-4-30T20:36:4Z</time></trkpt>
<trkpt lat="48.9216906" lon="2.6811580"><ele>123.47</ele><time>2026-4-30T20:36:7Z</time></trkpt>
<trkpt lat="48.9215828" lon="2.6813988"><ele>122.72</ele><time>2026-4-30T20:36:10Z</time></trkpt>
<trkpt lat="48.9214627" lon="2.6816288"><ele>122.11</ele><time>2026-4-30T20:36:13Z</time></trkpt>
<trkpt lat="48.9214562" lon="2.6819038"><ele>121.30</ele><time>2026-4-30T20:36:16Z</time></trkpt>
<trkpt lat="48.9215588" lon="2.6821548"><ele>123.29</ele><time>2026-4-30T20:36:19Z</time></trkpt>
<trkpt lat="48.9216463" lon="2.6824111"><ele>119.38</ele><time>2026-4-30T20:36:22Z</time></trkpt>
<trkpt lat="48.9217991" lon="2.6826100"><ele>117.64</ele><time>2026-4-30T20:36:25Z</time></trkpt>
<trkpt lat="48.9219329" lon="2.6828226"><ele>117.28</ele><time>2026-4-30T20:36:28Z</time></trkpt>
<trkpt lat="48.9220296" lon="2.6830619"><ele>115.80</ele><time>2026-4-30T20:36:31Z</time></trkpt>
<trkpt lat="48.9221256" lon="2.6833045"><ele>114.09</ele><time>2026-4-30T20:36:34Z</time></trkpt>
<trkpt lat="48.9222012" lon="2.6836458"><ele>114.64</ele><time>2026-4-30T20:36:37Z</time></trkpt>
<trkpt lat="48.9222338" lon="2.6839237"><ele>114.59</ele><time>2026-4-30T20:36:40Z</time></trkpt>
<trkpt lat="48.9222553" lon="2.6842079"><ele>113.99</ele><time>2026-4-30T20:36:43Z</time></trkpt>
<trkpt lat="48.9222406" lon="2.6845590"><ele>111.44</ele><time>2026-4-30T20:36:46Z</time></trkpt>
<trkpt lat="48.9221289" lon="2.6848721"><ele>111.27</ele><time>2026-4-30T20:36:49Z</time></trkpt>
<trkpt lat="48.9219955" lon="2.6851096"><ele>114.43</ele><time>2026-4-30T20:36:52Z</time></trkpt>
<trkpt lat="48.9218443" lon="2.6852790"><ele>115.72</ele><time>2026-4-30T20:36:55Z</time></trkpt>
<trkpt lat="48.9216730" lon="2.6854199"><ele>116.81</ele><time>2026-4-30T20:36:58Z</time></trkpt>
<trkpt lat="48.9214854" lon="2.6855427"><ele>118.34</ele><time>2026-4-30T20:37:1Z</time></trkpt>
<trkpt lat="48.9212992" lon="2.6856861"><ele>118.21</ele><time>2026-4-30T20:37:4Z</time></trkpt>
<trkpt lat="48.9211124" lon="2.6858028"><ele>118.39</ele><time>2026-4-30T20:37:7Z</time></trkpt>
<trkpt lat="48.9209403" lon="2.6859012"><ele>120.07</ele><time>2026-4-30T20:37:10Z</time></trkpt>
<trkpt lat="48.9207355" lon="2.6859816"><ele>120.57</ele><time>2026-4-30T20:37:13Z</time></trkpt>
<trkpt lat="48.9205238" lon="2.6861105"><ele>122.43</ele><time>2026-4-30T20:37:16Z</time></trkpt>
<trkpt lat="48.9203615" lon="2.6862370"><ele>125.45</ele><time>2026-4-30T20:37:19Z</time></trkpt>
<trkpt lat="48.9202270" lon="2.6864397"><ele>126.70</ele><time>2026-4-30T20:37:22Z</time></trkpt>
<trkpt lat="48.9200801" lon="2.6866014"><ele>123.86</ele><time>2026-4-30T20:37:25Z</time></trkpt>
<trkpt lat="48.9199182" lon="2.6867784"><ele>126.11</ele><time>2026-4-30T20:37:28Z</time></trkpt>
<trkpt lat="48.9197691" lon="2.6870291"><ele>130.26</ele><time>2026-4-30T20:37:31Z</time></trkpt>
<trkpt lat="48.9196354" lon="2.6872216"><ele>132.85</ele><time>2026-4-30T20:37:34Z</time></trkpt>
<trkpt lat="48.9195062" lon="2.6874286"><ele>133.74</ele><time>2026-4-30T20:37:37Z</time></trkpt>
<trkpt lat="48.9193502" lon="2.6876335"><ele>134.32</ele><time>2026-4-30T20:37:40Z</time></trkpt>
<trkpt lat="48.9191776" lon="2.6877199"><ele>129.38</ele><time>2026-4-30T20:37:43Z</time></trkpt>
<trkpt lat="48.9189841" lon="2.6877531"><ele>127.12</ele><time>2026-4-30T20:37:46Z</time></trkpt>
<trkpt lat="48.9188020" lon="2.6877748"><ele>126.55</ele><time>2026-4-30T20:37:49Z</time></trkpt>
<trkpt lat="48.9186061" lon="2.6879126"><ele>126.22</ele><time>2026-4-30T20:37:52Z</time></trkpt>
<trkpt lat="48.9184582" lon="2.6881293"><ele>124.22</ele><time>2026-4-30T20:37:55Z</time></trkpt>
<trkpt lat="48.9183597" lon="2.6883625"><ele>123.06</ele><time>2026-4-30T20:37:58Z</time></trkpt>
<trkpt lat="48.9182647" lon="2.6886072"><ele>121.39</ele><time>2026-4-30T20:38:1Z</time></trkpt>
<trkpt lat="48.9180947" lon="2.6887745"><ele>119.20</ele><time>2026-4-30T20:38:4Z</time></trkpt>
<trkpt lat="48.9179091" lon="2.6888179"><ele>122.08</ele><time>2026-4-30T20:38:7Z</time></trkpt>
<trkpt lat="48.9177326" lon="2.6888838"><ele>127.92</ele><time>2026-4-30T20:38:10Z</time></trkpt>
<trkpt lat="48.9175503" lon="2.6889456"><ele>134.40</ele><time>2026-4-30T20:38:13Z</time></trkpt>
<trkpt lat="48.9173526" lon="2.6889623"><ele>137.45</ele><time>2026-4-30T20:38:16Z</time></trkpt>
<trkpt lat="48.9171507" lon="2.6889855"><ele>138.89</ele><time>2026-4-30T20:38:19Z</time></trkpt>
<trkpt lat="48.9169666" lon="2.6890270"><ele>138.83</ele><time>2026-4-30T20:38:22Z</time></trkpt>
<trkpt lat="48.9167674" lon="2.6890779"><ele>139.62</ele><time>2026-4-30T20:38:25Z</time></trkpt>
<trkpt lat="48.9165544" lon="2.6891188"><ele>140.60</ele><time>2026-4-30T20:38:28Z</time></trkpt>
<trkpt lat="48.9163303" lon="2.6890915"><ele>139.31</ele><time>2026-4-30T20:38:31Z</time></trkpt>
<trkpt lat="48.9160962" lon="2.6889997"><ele>136.71</ele><time>2026-4-30T20:38:34Z</time></trkpt>
<trkpt lat="48.9158962" lon="2.6889022"><ele>134.70</ele><time>2026-4-30T20:38:37Z</time></trkpt>
<trkpt lat="48.9156926" lon="2.6887865"><ele>133.03</ele><time>2026-4-30T20:38:40Z</time></trkpt>
<trkpt lat="48.9155028" lon="2.6886655"><ele>132.00</ele><time>2026-4-30T20:38:43Z</time></trkpt>
<trkpt lat="48.9153105" lon="2.6886577"><ele>131.34</ele><time>2026-4-30T20:38:46Z</time></trkpt>
<trkpt lat="48.9151132" lon="2.6888254"><ele>129.42</ele><time>2026-4-30T20:38:49Z</time></trkpt>
<trkpt lat="48.9149245" lon="2.6890496"><ele>128.34</ele><time>2026-4-30T20:38:52Z</time></trkpt>
<trkpt lat="48.9147359" lon="2.6892263"><ele>128.05</ele><time>2026-4-30T20:38:55Z</time></trkpt>
<trkpt lat="48.9145654" lon="2.6893705"><ele>128.71</ele><time>2026-4-30T20:38:58Z</time></trkpt>
<trkpt lat="48.9144093" lon="2.6895584"><ele>128.28</ele><time>2026-4-30T20:39:1Z</time></trkpt>
<trkpt lat="48.9142310" lon="2.6897240"><ele>129.65</ele><time>2026-4-30T20:39:4Z</time></trkpt>
<trkpt lat="48.9140346" lon="2.6898364"><ele>131.78</ele><time>2026-4-30T20:39:7Z</time></trkpt>
<trkpt lat="48.9138535" lon="2.6898224"><ele>130.35</ele><time>2026-4-30T20:39:10Z</time></trkpt>
<trkpt lat="48.9136454" lon="2.6899002"><ele>131.33</ele><time>2026-4-30T20:39:13Z</time></trkpt>
<trkpt lat="48.9134697" lon="2.6899643"><ele>132.94</ele><time>2026-4-30T20:39:16Z</time></trkpt>
<trkpt lat="48.9132596" lon="2.6900202"><ele>133.95</ele><time>2026-4-30T20:39:19Z</time></trkpt>
<trkpt lat="48.9130410" lon="2.6900873"><ele>135.84</ele><time>2026-4-30T20:39:22Z</time></trkpt>
<trkpt lat="48.9128357" lon="2.6901402"><ele>136.31</ele><time>2026-4-30T20:39:25Z</time></trkpt>
<trkpt lat="48.9126243" lon="2.6902032"><ele>137.21</ele><time>2026-4-30T20:39:28Z</time></trkpt>
<trkpt lat="48.9124077" lon="2.6902715"><ele>135.76</ele><time>2026-4-30T20:39:31Z</time></trkpt>
<trkpt lat="48.9122230" lon="2.6902983"><ele>133.75</ele><time>2026-4-30T20:39:34Z</time></trkpt>
<trkpt lat="48.9119636" lon="2.6903443"><ele>128.65</ele><time>2026-4-30T20:39:37Z</time></trkpt>
<trkpt lat="48.9117706" lon="2.6903759"><ele>125.93</ele><time>2026-4-30T20:39:40Z</time></trkpt>
<trkpt lat="48.9116049" lon="2.6904829"><ele>126.03</ele><time>2026-4-30T20:39:43Z</time></trkpt>
<trkpt lat="48.9114096" lon="2.6907335"><ele>124.01</ele><time>2026-4-30T20:39:46Z</time></trkpt>
<trkpt lat="48.9112171" lon="2.6909846"><ele>123.78</ele><time>2026-4-30T20:39:49Z</time></trkpt>
<trkpt lat="48.9110718" lon="2.6911844"><ele>120.88</ele><time>2026-4-30T20:39:52Z</time></trkpt>
<trkpt lat="48.9108898" lon="2.6914125"><ele>120.64</ele><time>2026-4-30T20:39:55Z</time></trkpt>
<trkpt lat="48.9107228" lon="2.6915706"><ele>120.46</ele><time>2026-4-30T20:39:58Z</time></trkpt>
<trkpt lat="48.9105147" lon="2.6917479"><ele>118.29</ele><time>2026-4-30T20:40:1Z</time></trkpt>
<trkpt lat="48.9103841" lon="2.6919565"><ele>117.95</ele><time>2026-4-30T20:40:4Z</time></trkpt>
<trkpt lat="48.9102370" lon="2.6921560"><ele>116.97</ele><time>2026-4-30T20:40:7Z</time></trkpt>
<trkpt lat="48.9100907" lon="2.6924254"><ele>115.09</ele><time>2026-4-30T20:40:10Z</time></trkpt>
<trkpt lat="48.9099340" lon="2.6927070"><ele>114.55</ele><time>2026-4-30T20:40:13Z</time></trkpt>
<trkpt lat="48.9097626" lon="2.6928341"><ele>115.03</ele><time>2026-4-30T20:40:16Z</time></trkpt>
<trkpt lat="48.9095911" lon="2.6929509"><ele>115.25</ele><time>2026-4-30T20:40:19Z</time></trkpt>
<trkpt lat="48.9094209" lon="2.6930733"><ele>115.47</ele><time>2026-4-30T20:40:22Z</time></trkpt>
<trkpt lat="48.9092444" lon="2.6931767"><ele>115.07</ele><time>2026-4-30T20:40:25Z</time></trkpt>
<trkpt lat="48.9090787" lon="2.6933034"><ele>115.33</ele><time>2026-4-30T20:40:28Z</time></trkpt>
<trkpt lat="48.9089216" lon="2.6934934"><ele>113.94</ele><time>2026-4-30T20:40:31Z</time></trkpt>
<trkpt lat="48.9087730" lon="2.6936729"><ele>113.94</ele><time>2026-4-30T20:40:34Z</time></trkpt>
<trkpt lat="48.9086343" lon="2.6938676"><ele>114.07</ele><time>2026-4-30T20:40:37Z</time></trkpt>
<trkpt lat="48.9084598" lon="2.6941069"><ele>114.36</ele><time>2026-4-30T20:40:40Z</time></trkpt>
<trkpt lat="48.9083163" lon="2.6943830"><ele>113.55</ele><time>2026-4-30T20:40:43Z</time></trkpt>
<trkpt lat="48.9082622" lon="2.6947167"><ele>114.51</ele><time>2026-4-30T20:40:46Z</time></trkpt>
<trkpt lat="48.9082836" lon="2.6950800"><ele>114.23</ele><time>2026-4-30T20:40:49Z</time></trkpt>
<trkpt lat="48.9083248" lon="2.6953548"><ele>114.52</ele><time>2026-4-30T20:40:52Z</time></trkpt>
<trkpt lat="48.9083637" lon="2.6956328"><ele>115.05</ele><time>2026-4-30T20:40:55Z</time></trkpt>
<trkpt lat="48.9083934" lon="2.6959172"><ele>114.98</ele><time>2026-4-30T20:40:58Z</time></trkpt>
<trkpt lat="48.9084272" lon="2.6961894"><ele>114.23</ele><time>2026-4-30T20:41:1Z</time></trkpt>
<trkpt lat="48.9084562" lon="2.6964785"><ele>114.00</ele><time>2026-4-30T20:41:4Z</time></trkpt>
<trkpt lat="48.9085310" lon="2.6967312"><ele>113.02</ele><time>2026-4-30T20:41:7Z</time></trkpt>
<trkpt lat="48.9086596" lon="2.6970343"><ele>112.64</ele><time>2026-4-30T20:41:10Z</time></trkpt>
<trkpt lat="48.9087446" lon="2.6972800"><ele>113.40</ele><time>2026-4-30T20:41:13Z</time></trkpt>
<trkpt lat="48.9088301" lon="2.6975340"><ele>113.24</ele><time>2026-4-30T20:41:16Z</time></trkpt>
<trkpt lat="48.9088689" lon="2.6978215"><ele>113.34</ele><time>2026-4-30T20:41:19Z</time></trkpt>
<trkpt lat="48.9089065" lon="2.6981067"><ele>114.27</ele><time>2026-4-30T20:41:22Z</time></trkpt>
<trkpt lat="48.9089557" lon="2.6983787"><ele>115.48</ele><time>2026-4-30T20:41:25Z</time></trkpt>
<trkpt lat="48.9090621" lon="2.6986938"><ele>112.99</ele><time>2026-4-30T20:41:28Z</time></trkpt>
<trkpt lat="48.9091295" lon="2.6989683"><ele>112.56</ele><time>2026-4-30T20:41:31Z</time></trkpt>
<trkpt lat="48.9091569" lon="2.6992592"><ele>112.88</ele><time>2026-4-30T20:41:34Z</time></trkpt>
<trkpt lat="48.9091271" lon="2.6995448"><ele>113.78</ele><time>2026-4-30T20:41:37Z</time></trkpt>
<trkpt lat="48.9090556" lon="2.6998790"><ele>113.79</ele><time>2026-4-30T20:41:40Z</time></trkpt>
<trkpt lat="48.9089841" lon="2.7001463"><ele>115.68</ele><time>2026-4-30T20:41:43Z</time></trkpt>
<trkpt lat="48.9088954" lon="2.7004965"><ele>117.44</ele><time>2026-4-30T20:41:46Z</time></trkpt>
<trkpt lat="48.9088560" lon="2.7007655"><ele>118.89</ele><time>2026-4-30T20:41:49Z</time></trkpt>
<trkpt lat="48.9088455" lon="2.7010498"><ele>118.47</ele><time>2026-4-30T20:41:52Z</time></trkpt>
<trkpt lat="48.9088207" lon="2.7013243"><ele>115.95</ele><time>2026-4-30T20:41:55Z</time></trkpt>
<trkpt lat="48.9087785" lon="2.7016893"><ele>115.18</ele><time>2026-4-30T20:41:58Z</time></trkpt>
<trkpt lat="48.9087305" lon="2.7019792"><ele>117.23</ele><time>2026-4-30T20:42:1Z</time></trkpt>
<trkpt lat="48.9086257" lon="2.7022110"><ele>116.52</ele><time>2026-4-30T20:42:4Z</time></trkpt>
<trkpt lat="48.9084386" lon="2.7024349"><ele>115.64</ele><time>2026-4-30T20:42:7Z</time></trkpt>
<trkpt lat="48.9082774" lon="2.7025832"><ele>115.23</ele><time>2026-4-30T20:42:10Z</time></trkpt>
<trkpt lat="48.9080971" lon="2.7026925"><ele>115.06</ele><time>2026-4-30T20:42:13Z</time></trkpt>
<trkpt lat="48.9079126" lon="2.7027636"><ele>114.97</ele><time>2026-4-30T20:42:16Z</time></trkpt>
<trkpt lat="48.9077386" lon="2.7028445"><ele>114.91</ele><time>2026-4-30T20:42:19Z</time></trkpt>
<trkpt lat="48.9075554" lon="2.7029253"><ele>115.17</ele><time>2026-4-30T20:42:22Z</time></trkpt>
<trkpt lat="48.9074038" lon="2.7030847"><ele>115.63</ele><time>2026-4-30T20:42:25Z</time></trkpt>
<trkpt lat="48.9072771" lon="2.7032791"><ele>114.60</ele><time>2026-4-30T20:42:28Z</time></trkpt>
<trkpt lat="48.9071232" lon="2.7034548"><ele>114.77</ele><time>2026-4-30T20:42:31Z</time></trkpt>
<trkpt lat="48.9069614" lon="2.7036662"><ele>114.31</ele><time>2026-4-30T20:42:34Z</time></trkpt>
<trkpt lat="48.9068237" lon="2.7038587"><ele>113.03</ele><time>2026-4-30T20:42:37Z</time></trkpt>
<trkpt lat="48.9066784" lon="2.7040371"><ele>113.29</ele><time>2026-4-30T20:42:40Z</time></trkpt>
<trkpt lat="48.9064766" lon="2.7042312"><ele>112.68</ele><time>2026-4-30T20:42:43Z</time></trkpt>
<trkpt lat="48.9062967" lon="2.7043570"><ele>112.93</ele><time>2026-4-30T20:42:46Z</time></trkpt>
<trkpt lat="48.9061257" lon="2.7044809"><ele>112.67</ele><time>2026-4-30T20:42:49Z</time></trkpt>
<trkpt lat="48.9059451" lon="2.7045522"><ele>112.66</ele><time>2026-4-30T20:42:52Z</time></trkpt>
<trkpt lat="48.9057572" lon="2.7045956"><ele>113.03</ele><time>2026-4-30T20:42:55Z</time></trkpt>
<trkpt lat="48.9055777" lon="2.7046319"><ele>113.77</ele><time>2026-4-30T20:42:58Z</time></trkpt>
<trkpt lat="48.9053579" lon="2.7046353"><ele>114.12</ele><time>2026-4-30T20:43:1Z</time></trkpt>
<trkpt lat="48.9051296" lon="2.7045874"><ele>112.17</ele><time>2026-4-30T20:43:4Z</time></trkpt>
<trkpt lat="48.9049029" lon="2.7044783"><ele>112.22</ele><time>2026-4-30T20:43:7Z</time></trkpt>
<trkpt lat="48.9047210" lon="2.7043830"><ele>111.16</ele><time>2026-4-30T20:43:10Z</time></trkpt>
<trkpt lat="48.9045344" lon="2.7042479"><ele>112.44</ele><time>2026-4-30T20:43:13Z</time></trkpt>
<trkpt lat="48.9043447" lon="2.7041186"><ele>112.47</ele><time>2026-4-30T20:43:16Z</time></trkpt>
<trkpt lat="48.9041602" lon="2.7039998"><ele>113.23</ele><time>2026-4-30T20:43:19Z</time></trkpt>
<trkpt lat="48.9039384" lon="2.7038693"><ele>113.91</ele><time>2026-4-30T20:43:22Z</time></trkpt>
<trkpt lat="48.9037758" lon="2.7037351"><ele>114.62</ele><time>2026-4-30T20:43:25Z</time></trkpt>
<trkpt lat="48.9036475" lon="2.7035368"><ele>115.02</ele><time>2026-4-30T20:43:28Z</time></trkpt>
<trkpt lat="48.9035073" lon="2.7033454"><ele>114.76</ele><time>2026-4-30T20:43:31Z</time></trkpt>
<trkpt lat="48.9033464" lon="2.7031972"><ele>114.82</ele><time>2026-4-30T20:43:34Z</time></trkpt>
<trkpt lat="48.9031708" lon="2.7031033"><ele>113.87</ele><time>2026-4-30T20:43:37Z</time></trkpt>
<trkpt lat="48.9029842" lon="2.7030358"><ele>112.65</ele><time>2026-4-30T20:43:40Z</time></trkpt>
<trkpt lat="48.9027939" lon="2.7029647"><ele>112.42</ele><time>2026-4-30T20:43:43Z</time></trkpt>
<trkpt lat="48.9025652" lon="2.7028451"><ele>112.51</ele><time>2026-4-30T20:43:46Z</time></trkpt>
<trkpt lat="48.9023898" lon="2.7027250"><ele>112.53</ele><time>2026-4-30T20:43:49Z</time></trkpt>
<trkpt lat="48.9022267" lon="2.7025720"><ele>113.13</ele><time>2026-4-30T20:43:52Z</time></trkpt>
<trkpt lat="48.9021003" lon="2.7023530"><ele>112.35</ele><time>2026-4-30T20:43:55Z</time></trkpt>
<trkpt lat="48.9019733" lon="2.7021166"><ele>112.38</ele><time>2026-4-30T20:43:58Z</time></trkpt>
<trkpt lat="48.9018514" lon="2.7019052"><ele>114.04</ele><time>2026-4-30T20:44:1Z</time></trkpt>
<trkpt lat="48.9017294" lon="2.7016800"><ele>115.23</ele><time>2026-4-30T20:44:4Z</time></trkpt>
<trkpt lat="48.9015745" lon="2.7014345"><ele>116.25</ele><time>2026-4-30T20:44:7Z</time></trkpt>
<trkpt lat="48.9014189" lon="2.7012856"><ele>116.22</ele><time>2026-4-30T20:44:10Z</time></trkpt>
<trkpt lat="48.9012342" lon="2.7011687"><ele>116.83</ele><time>2026-4-30T20:44:13Z</time></trkpt>
<trkpt lat="48.9010736" lon="2.7010284"><ele>116.31</ele><time>2026-4-30T20:44:16Z</time></trkpt>
<trkpt lat="48.9008614" lon="2.7008858"><ele>116.28</ele><time>2026-4-30T20:44:19Z</time></trkpt>
<trkpt lat="48.9006290" lon="2.7008688"><ele>116.68</ele><time>2026-4-30T20:44:22Z</time></trkpt>
<trkpt lat="48.9003993" lon="2.7008622"><ele>116.46</ele><time>2026-4-30T20:44:25Z</time></trkpt>
<trkpt lat="48.9001722" lon="2.7008502"><ele>116.50</ele><time>2026-4-30T20:44:28Z</time></trkpt>
<trkpt lat="48.8999491" lon="2.7008847"><ele>117.24</ele><time>2026-4-30T20:44:31Z</time></trkpt>
<trkpt lat="48.8997371" lon="2.7010596"><ele>117.24</ele><time>2026-4-30T20:44:34Z</time></trkpt>
<trkpt lat="48.8995846" lon="2.7012228"><ele>115.74</ele><time>2026-4-30T20:44:37Z</time></trkpt>
<trkpt lat="48.8994288" lon="2.7013884"><ele>116.63</ele><time>2026-4-30T20:44:40Z</time></trkpt>
<trkpt lat="48.8992985" lon="2.7015785"><ele>116.52</ele><time>2026-4-30T20:44:43Z</time></trkpt>
<trkpt lat="48.8991224" lon="2.7018172"><ele>117.60</ele><time>2026-4-30T20:44:46Z</time></trkpt>
<trkpt lat="48.8989518" lon="2.7019818"><ele>118.10</ele><time>2026-4-30T20:44:49Z</time></trkpt>
<trkpt lat="48.8987840" lon="2.7021002"><ele>117.90</ele><time>2026-4-30T20:44:52Z</time></trkpt>
<trkpt lat="48.8985908" lon="2.7021708"><ele>117.97</ele><time>2026-4-30T20:44:55Z</time></trkpt>
<trkpt lat="48.8984105" lon="2.7022553"><ele>117.65</ele><time>2026-4-30T20:44:58Z</time></trkpt>
<trkpt lat="48.8982440" lon="2.7024707"><ele>117.12</ele><time>2026-4-30T20:45:1Z</time></trkpt>
<trkpt lat="48.8981246" lon="2.7027221"><ele>116.31</ele><time>2026-4-30T20:45:4Z</time></trkpt>
<trkpt lat="48.8981115" lon="2.7030738"><ele>115.78</ele><time>2026-4-30T20:45:7Z</time></trkpt>
<trkpt lat="48.8981108" lon="2.7033619"><ele>115.51</ele><time>2026-4-30T20:45:10Z</time></trkpt>
<trkpt lat="48.8981103" lon="2.7036435"><ele>115.03</ele><time>2026-4-30T20:45:13Z</time></trkpt>
<trkpt lat="48.8981255" lon="2.7039208"><ele>114.75</ele><time>2026-4-30T20:45:16Z</time></trkpt>
<trkpt lat="48.8981361" lon="2.7042068"><ele>113.97</ele><time>2026-4-30T20:45:19Z</time></trkpt>
<trkpt lat="48.8981441" lon="2.7045039"><ele>114.01</ele><time>2026-4-30T20:45:22Z</time></trkpt>
<trkpt lat="48.8981609" lon="2.7047949"><ele>114.28</ele><time>2026-4-30T20:45:25Z</time></trkpt>
<trkpt lat="48.8982427" lon="2.7051346"><ele>115.38</ele><time>2026-4-30T20:45:28Z</time></trkpt>
<trkpt lat="48.8983351" lon="2.7054634"><ele>114.91</ele><time>2026-4-30T20:45:31Z</time></trkpt>
<trkpt lat="48.8984274" lon="2.7057898"><ele>115.93</ele><time>2026-4-30T20:45:34Z</time></trkpt>
<trkpt lat="48.8985040" lon="2.7061062"><ele>115.45</ele><time>2026-4-30T20:45:37Z</time></trkpt>
<trkpt lat="48.8984739" lon="2.7063763"><ele>115.63</ele><time>2026-4-30T20:45:40Z</time></trkpt>
<trkpt lat="48.8983693" lon="2.7066551"><ele>114.82</ele><time>2026-4-30T20:45:43Z</time></trkpt>
<trkpt lat="48.8982371" lon="2.7069386"><ele>112.71</ele><time>2026-4-30T20:45:46Z</time></trkpt>
<trkpt lat="48.8980979" lon="2.7071695"><ele>113.53</ele><time>2026-4-30T20:45:49Z</time></trkpt>
<trkpt lat="48.8979336" lon="2.7074174"><ele>112.91</ele><time>2026-4-30T20:45:52Z</time></trkpt>
<trkpt lat="48.8977655" lon="2.7076938"><ele>111.32</ele><time>2026-4-30T20:45:55Z</time></trkpt>
<trkpt lat="48.8975835" lon="2.7079910"><ele>109.73</ele><time>2026-4-30T20:45:58Z</time></trkpt>
<trkpt lat="48.8974511" lon="2.7081859"><ele>108.46</ele><time>2026-4-30T20:46:1Z</time></trkpt>
<trkpt lat="48.8973282" lon="2.7083869"><ele>107.59</ele><time>2026-4-30T20:46:4Z</time></trkpt>
<trkpt lat="48.8971659" lon="2.7086624"><ele>104.94</ele><time>2026-4-30T20:46:7Z</time></trkpt>
<trkpt lat="48.8969772" lon="2.7088696"><ele>104.49</ele><time>2026-4-30T20:46:10Z</time></trkpt>
<trkpt lat="48.8968216" lon="2.7091092"><ele>103.41</ele><time>2026-4-30T20:46:13Z</time></trkpt>
<trkpt lat="48.8966679" lon="2.7093234"><ele>102.74</ele><time>2026-4-30T20:46:16Z</time></trkpt>
<trkpt lat="48.8965338" lon="2.7095182"><ele>102.30</ele><time>2026-4-30T20:46:19Z</time></trkpt>
<trkpt lat="48.8964081" lon="2.7097319"><ele>103.31</ele><time>2026-4-30T20:46:22Z</time></trkpt>
<trkpt lat="48.8962546" lon="2.7099484"><ele>104.53</ele><time>2026-4-30T20:46:25Z</time></trkpt>
<trkpt lat="48.8961288" lon="2.7101503"><ele>104.81</ele><time>2026-4-30T20:46:28Z</time></trkpt>
<trkpt lat="48.8959872" lon="2.7103602"><ele>104.55</ele><time>2026-4-30T20:46:31Z</time></trkpt>
<trkpt lat="48.8958604" lon="2.7105919"><ele>105.53</ele><time>2026-4-30T20:46:34Z</time></trkpt>
<trkpt lat="48.8957128" lon="2.7107827"><ele>106.31</ele><time>2026-4-30T20:46:37Z</time></trkpt>
<trkpt lat="48.8955885" lon="2.7109844"><ele>107.73</ele><time>2026-4-30T20:46:40Z</time></trkpt>
<trkpt lat="48.8954563" lon="2.7111736"><ele>108.90</ele><time>2026-4-30T20:46:43Z</time></trkpt>
<trkpt lat="48.8953163" lon="2.7113801"><ele>111.68</ele><time>2026-4-30T20:46:46Z</time></trkpt>
<trkpt lat="48.8951925" lon="2.7115891"><ele>113.13</ele><time>2026-4-30T20:46:49Z</time></trkpt>
<trkpt lat="48.8950631" lon="2.7118069"><ele>113.98</ele><time>2026-4-30T20:46:52Z</time></trkpt>
<trkpt lat="48.8949268" lon="2.7120299"><ele>113.70</ele><time>2026-4-30T20:46:55Z</time></trkpt>
<trkpt lat="48.8947721" lon="2.7121987"><ele>114.74</ele><time>2026-4-30T20:46:58Z</time></trkpt>
<trkpt lat="48.8947080" lon="2.7124731"><ele>114.19</ele><time>2026-4-30T20:47:1Z</time></trkpt>
<trkpt lat="48.8947676" lon="2.7127598"><ele>114.69</ele><time>2026-4-30T20:47:4Z</time></trkpt>
<trkpt lat="48.8948048" lon="2.7130306"><ele>114.93</ele><time>2026-4-30T20:47:7Z</time></trkpt>
<trkpt lat="48.8948377" lon="2.7133335"><ele>115.05</ele><time>2026-4-30T20:47:10Z</time></trkpt>
<trkpt lat="48.8838661" lon="2.6304632"><ele>107.23</ele><time>2026-4-30T20:47:13Z</time></trkpt>
</trkseg></trk></gpx>